createdAt,value
2022-08-17T00:00:42.640Z,62.10
2022-08-17T00:03:11.334Z,61.59
2022-08-17T00:05:42.310Z,60.98
2022-08-17T00:08:11.593Z,60.80
2022-08-17T00:10:39.238Z,60.54
2022-08-17T00:13:25.370Z,61.10
2022-08-17T00:15:59.446Z,58.39
2022-08-17T00:18:57.648Z,57.48
2022-08-17T00:21:16.759Z,58.25
2022-08-17T00:23:52.739Z,59.53
2022-08-17T00:26:43.733Z,60.51
2022-08-17T00:29:08.367Z,64.49
2022-08-17T00:31:36.562Z,65.31
2022-08-17T00:34:06.037Z,61.67
2022-08-17T00:36:32.974Z,58.08
2022-08-17T00:39:00.425Z,57.49
2022-08-17T00:41:28.406Z,58.83
2022-08-17T00:44:01.491Z,60.47
2022-08-17T00:46:36.256Z,65.13
2022-08-17T00:49:05.255Z,65.05
2022-08-17T00:51:35.139Z,61.84
2022-08-17T00:54:06.006Z,58.66
2022-08-17T00:56:38.954Z,57.91
2022-08-17T00:59:08.756Z,59.17
2022-08-17T01:01:37.091Z,60.70
2022-08-17T01:04:05.627Z,65.32
2022-08-17T01:06:33.489Z,65.28
2022-08-17T01:09:02.790Z,62.12
2022-08-17T01:11:31.377Z,60.41
2022-08-17T01:13:58.266Z,57.97
2022-08-17T01:16:28.020Z,57.81
2022-08-17T01:19:01.743Z,59.14
2022-08-17T01:21:40.300Z,60.35
2022-08-17T01:24:08.208Z,64.90
2022-08-17T01:26:38.242Z,64.35
2022-08-17T01:29:06.464Z,60.99
2022-08-17T01:31:39.594Z,58.53
2022-08-17T01:34:09.626Z,57.75
2022-08-17T01:36:38.041Z,59.30
2022-08-17T01:39:09.455Z,60.30
2022-08-17T01:41:38.450Z,64.51
2022-08-17T01:44:07.406Z,65.77
2022-08-17T01:46:36.836Z,63.14
2022-08-17T01:49:10.270Z,61.24
2022-08-17T01:51:38.199Z,58.98
2022-08-17T01:54:11.095Z,58.55
2022-08-17T01:56:41.412Z,60.10
2022-08-17T01:59:09.694Z,64.18
2022-08-17T02:01:37.487Z,64.30
2022-08-17T02:04:07.098Z,61.82
2022-08-17T02:06:45.072Z,60.39
2022-08-17T02:09:16.810Z,59.85
2022-08-17T02:11:44.997Z,58.18
2022-08-17T02:14:13.952Z,58.20
2022-08-17T02:16:41.604Z,59.31
2022-08-17T02:19:13.429Z,60.51
2022-08-17T02:21:42.309Z,63.86
2022-08-17T02:24:15.196Z,64.62
2022-08-17T02:26:42.540Z,61.84
2022-08-17T02:29:09.594Z,58.47
2022-08-17T02:31:37.347Z,57.98
2022-08-17T02:34:06.360Z,59.21
2022-08-17T02:36:35.436Z,60.41
2022-08-17T02:39:05.741Z,64.54
2022-08-17T02:41:33.246Z,64.42
2022-08-17T02:44:00.782Z,61.55
2022-08-17T02:46:28.294Z,59.88
2022-08-17T02:48:55.694Z,57.54
2022-08-17T02:51:22.613Z,57.41
2022-08-17T02:53:49.791Z,58.90
2022-08-17T02:56:16.979Z,60.34
2022-08-17T02:58:44.118Z,64.54
2022-08-17T03:01:12.189Z,65.03
2022-08-17T03:03:41.149Z,62.37
2022-08-17T03:06:08.645Z,61.50
2022-08-17T03:08:37.022Z,60.02
2022-08-17T03:11:04.443Z,57.12
2022-08-17T03:13:31.907Z,57.24
2022-08-17T03:15:58.859Z,58.35
2022-08-17T03:18:27.402Z,59.49
2022-08-17T03:20:57.454Z,60.71
2022-08-17T03:23:25.999Z,64.90
2022-08-17T03:25:55.028Z,64.36
2022-08-17T03:28:24.025Z,61.98
2022-08-17T03:30:51.474Z,61.07
2022-08-17T03:33:19.658Z,60.23
2022-08-17T03:35:47.012Z,58.52
2022-08-17T03:38:16.921Z,58.36
2022-08-17T03:40:59.092Z,59.18
2022-08-17T03:43:33.080Z,60.08
2022-08-17T03:46:32.420Z,64.23
2022-08-17T03:49:23.743Z,64.82
2022-08-17T03:52:10.715Z,63.28
2022-08-17T03:54:57.695Z,61.65
2022-08-17T03:57:26.082Z,61.68
2022-08-17T03:59:54.550Z,61.10
2022-08-17T04:02:27.726Z,58.03
2022-08-17T04:04:54.996Z,57.59
2022-08-17T04:07:29.157Z,59.04
2022-08-17T04:09:57.587Z,60.20
2022-08-17T04:12:25.866Z,63.51
2022-08-17T04:14:54.848Z,64.38
2022-08-17T04:17:25.712Z,63.59
2022-08-17T04:19:53.973Z,62.40
2022-08-17T04:22:33.408Z,62.62
2022-08-17T04:25:06.605Z,60.57
2022-08-17T04:27:34.054Z,57.91
2022-08-17T04:30:01.647Z,57.98
2022-08-17T04:33:04.810Z,59.52
2022-08-17T04:35:22.486Z,60.50
2022-08-17T04:37:50.818Z,64.55
2022-08-17T04:40:38.858Z,66.04
2022-08-17T04:43:18.754Z,63.41
2022-08-17T04:45:55.853Z,60.69
2022-08-17T04:48:29.628Z,58.45
2022-08-17T04:51:21.129Z,58.41
2022-08-17T04:53:54.672Z,60.19
2022-08-17T04:56:25.455Z,64.46
2022-08-17T04:58:59.069Z,64.30
2022-08-17T05:01:31.072Z,63.41
2022-08-17T05:04:20.784Z,63.00
2022-08-17T05:06:49.177Z,62.84
2022-08-17T05:09:17.356Z,62.58
2022-08-17T05:11:45.727Z,62.91
2022-08-17T05:14:13.525Z,62.67
2022-08-17T05:16:42.304Z,63.24
2022-08-17T05:19:10.045Z,62.40
2022-08-17T05:21:37.815Z,62.05
2022-08-17T05:24:35.422Z,61.71
2022-08-17T05:26:55.940Z,61.40
2022-08-17T05:29:23.639Z,61.40
2022-08-17T05:32:38.675Z,62.16
2022-08-17T05:35:02.504Z,61.97
2022-08-17T05:37:30.568Z,58.39
2022-08-17T05:39:57.796Z,57.22
2022-08-17T05:42:24.955Z,58.08
2022-08-17T05:44:52.635Z,59.47
2022-08-17T05:47:23.255Z,62.41
2022-08-17T05:49:50.730Z,63.12
2022-08-17T05:52:38.991Z,62.11
2022-08-17T05:55:12.565Z,60.78
2022-08-17T05:57:47.636Z,59.83
2022-08-17T06:00:42.558Z,57.35
2022-08-17T06:03:29.678Z,56.63
2022-08-17T06:06:17.049Z,57.07
2022-08-17T06:09:33.680Z,59.36
2022-08-17T06:12:32.638Z,58.60
2022-08-17T06:15:15.871Z,61.10
2022-08-17T06:17:44.412Z,62.95
2022-08-17T06:20:15.796Z,62.26
2022-08-17T06:22:50.619Z,61.02
2022-08-17T06:25:26.075Z,59.62
2022-08-17T06:28:09.741Z,58.07
2022-08-17T06:31:00.683Z,58.00
2022-08-17T06:33:33.741Z,60.01
2022-08-17T06:36:02.108Z,60.23
2022-08-17T06:38:54.628Z,60.46
2022-08-17T06:41:27.927Z,60.98
2022-08-17T06:44:42.172Z,60.40
2022-08-17T06:47:28.062Z,60.44
2022-08-17T06:50:27.042Z,61.76
2022-08-17T06:53:05.472Z,61.36
2022-08-17T06:55:44.929Z,61.16
2022-08-17T06:58:17.700Z,60.82
2022-08-17T07:00:48.714Z,60.59
2022-08-17T07:03:38.424Z,59.94
2022-08-17T07:06:20.953Z,59.01
2022-08-17T07:09:31.199Z,59.58
2022-08-17T07:12:12.179Z,59.65
2022-08-17T07:14:51.374Z,59.37
2022-08-17T07:17:46.542Z,58.79
2022-08-17T07:20:17.206Z,58.69
2022-08-17T07:22:55.304Z,58.61
2022-08-17T07:25:30.036Z,58.20
2022-08-17T07:28:05.291Z,57.12
2022-08-17T07:30:48.553Z,57.18
2022-08-17T07:33:20.821Z,56.93
2022-08-17T07:35:51.028Z,56.29
2022-08-17T07:38:35.181Z,55.42
2022-08-17T07:41:07.459Z,55.87
2022-08-17T07:43:48.219Z,55.25
2022-08-17T07:46:43.224Z,54.59
2022-08-17T07:49:10.168Z,54.19
2022-08-17T07:51:47.733Z,54.39
2022-08-17T07:54:15.247Z,53.81
2022-08-17T07:56:59.953Z,53.38
2022-08-17T07:59:34.599Z,53.42
2022-08-17T08:02:33.579Z,52.96
2022-08-17T08:05:03.269Z,51.96
2022-08-17T08:07:44.713Z,51.96
2022-08-17T08:10:35.257Z,51.92
2022-08-17T08:13:31.451Z,50.99
2022-08-17T08:16:32.068Z,50.92
2022-08-17T08:19:03.663Z,49.97
2022-08-17T08:21:38.185Z,49.85
2022-08-17T08:24:43.012Z,49.52
2022-08-17T08:27:35.678Z,49.77
2022-08-17T08:30:08.557Z,49.24
2022-08-17T08:32:42.577Z,48.20
2022-08-17T08:35:33.964Z,47.92
2022-08-17T08:38:17.642Z,47.96
2022-08-17T08:41:21.049Z,46.84
2022-08-17T08:44:10.942Z,47.12
2022-08-17T08:47:00.762Z,46.06
2022-08-17T08:50:05.997Z,46.63
2022-08-17T08:52:55.391Z,45.75
2022-08-17T08:55:24.376Z,45.14
2022-08-17T08:58:06.589Z,45.09
2022-08-17T09:00:41.012Z,45.11
2022-08-17T09:03:17.059Z,44.62
2022-08-17T09:06:32.269Z,44.04
2022-08-17T09:09:24.278Z,43.89
2022-08-17T09:12:02.796Z,43.61
2022-08-17T09:14:46.681Z,43.76
2022-08-17T09:17:35.997Z,43.13
2022-08-17T09:20:13.709Z,42.55
2022-08-17T09:23:13.316Z,42.58
2022-08-17T09:25:50.086Z,42.64
2022-08-17T09:28:24.385Z,42.88
2022-08-17T09:30:55.845Z,43.07
2022-08-17T09:33:32.507Z,43.21
2022-08-17T09:36:35.749Z,42.31
2022-08-17T09:39:07.586Z,42.46
2022-08-17T09:41:49.250Z,41.65
2022-08-17T09:44:25.939Z,40.78
2022-08-17T09:47:02.119Z,39.83
2022-08-17T09:49:33.476Z,37.81
2022-08-17T09:52:09.633Z,37.92
2022-08-17T09:54:41.227Z,37.91
2022-08-17T09:57:30.799Z,37.27
2022-08-17T10:00:29.600Z,38.82
2022-08-17T10:03:24.655Z,39.25
2022-08-17T10:06:12.745Z,39.40
2022-08-17T10:08:52.842Z,39.60
2022-08-17T10:12:09.661Z,38.79
2022-08-17T10:14:44.353Z,39.41
2022-08-17T10:17:39.821Z,38.78
2022-08-17T10:20:46.153Z,38.68
2022-08-17T10:23:43.370Z,39.23
2022-08-17T10:26:23.565Z,38.91
2022-08-17T10:29:18.378Z,37.72
2022-08-17T10:31:50.745Z,37.82
2022-08-17T10:34:56.072Z,37.21
2022-08-17T10:37:55.375Z,37.14
2022-08-17T10:40:47.476Z,36.77
2022-08-17T10:44:39.756Z,36.30
2022-08-17T10:46:55.782Z,36.22
2022-08-17T10:49:29.039Z,36.33
2022-08-17T10:52:00.806Z,36.52
2022-08-17T10:54:39.503Z,36.06
2022-08-17T10:57:46.426Z,36.32
2022-08-17T11:00:16.642Z,36.39
2022-08-17T11:02:57.109Z,36.03
2022-08-17T11:05:31.391Z,35.72
2022-08-17T11:08:12.421Z,34.49
2022-08-17T11:11:13.604Z,35.27
2022-08-17T11:14:15.055Z,35.09
2022-08-17T11:17:03.013Z,34.40
2022-08-17T11:19:51.768Z,34.39
2022-08-17T11:22:43.704Z,34.71
2022-08-17T11:25:17.996Z,34.37
2022-08-17T11:28:04.617Z,33.07
2022-08-17T11:30:48.550Z,32.83
2022-08-17T11:33:38.070Z,32.48
2022-08-17T11:37:02.851Z,32.71
2022-08-17T11:40:05.221Z,33.42
2022-08-17T11:42:48.193Z,32.80
2022-08-17T11:45:32.242Z,33.21
2022-08-17T11:48:37.538Z,33.37
2022-08-17T11:51:46.360Z,33.22
2022-08-17T11:54:34.155Z,32.45
2022-08-17T11:57:27.152Z,31.55
2022-08-17T12:00:41.102Z,32.06
2022-08-17T12:03:24.484Z,32.36
2022-08-17T12:06:04.080Z,32.16
2022-08-17T12:08:33.912Z,32.20
2022-08-17T12:11:09.575Z,31.81
2022-08-17T12:13:56.210Z,31.98
2022-08-17T12:16:27.172Z,31.35
2022-08-17T12:18:58.198Z,31.54
2022-08-17T12:22:07.578Z,31.52
2022-08-17T12:24:59.179Z,31.70
2022-08-17T12:27:46.224Z,31.06
2022-08-17T12:30:23.100Z,31.23
2022-08-17T12:32:52.014Z,31.24
2022-08-17T12:35:40.196Z,30.70
2022-08-17T12:38:31.876Z,30.84
2022-08-17T12:41:25.546Z,30.24
2022-08-17T12:44:25.226Z,29.70
2022-08-17T12:47:01.137Z,30.26
2022-08-17T12:49:48.440Z,30.41
2022-08-17T12:52:27.403Z,30.87
2022-08-17T12:55:07.078Z,30.31
2022-08-17T12:57:42.774Z,29.68
2022-08-17T13:00:18.000Z,30.30
2022-08-17T13:02:51.813Z,30.24
2022-08-17T13:05:31.845Z,30.23
2022-08-17T13:08:01.368Z,30.21
2022-08-17T13:10:33.532Z,29.50
2022-08-17T13:13:05.335Z,30.11
2022-08-17T13:15:44.450Z,30.09
2022-08-17T13:18:39.258Z,29.88
2022-08-17T13:21:18.514Z,29.45
2022-08-17T13:24:01.395Z,29.09
2022-08-17T13:26:41.899Z,28.70
2022-08-17T13:29:46.008Z,28.77
2022-08-17T13:32:43.962Z,29.24
2022-08-17T13:35:52.165Z,29.17
2022-08-17T13:38:47.070Z,29.62
2022-08-17T13:41:34.762Z,29.72
2022-08-17T13:48:15.054Z,28.56
2022-08-17T13:50:49.541Z,28.19
2022-08-17T13:53:29.733Z,28.27
2022-08-17T13:56:37.932Z,28.45
2022-08-17T13:59:52.650Z,28.95
2022-08-17T14:02:19.810Z,29.52
2022-08-17T14:04:48.725Z,29.65
2022-08-17T14:07:18.035Z,29.31
2022-08-17T14:09:58.594Z,28.68
2022-08-17T14:12:30.754Z,29.08
2022-08-17T14:15:05.933Z,29.25
2022-08-17T14:17:43.540Z,29.11
2022-08-17T14:20:20.065Z,29.37
2022-08-17T14:22:57.602Z,29.13
2022-08-17T14:25:32.131Z,29.21
2022-08-17T14:28:01.683Z,28.83
2022-08-17T14:30:31.609Z,28.24
2022-08-17T14:33:01.836Z,29.49
2022-08-17T14:35:29.610Z,29.94
2022-08-17T14:37:57.556Z,30.43
2022-08-17T14:40:25.158Z,31.16
2022-08-17T14:42:54.565Z,30.98
2022-08-17T14:45:31.773Z,30.45
2022-08-17T14:48:07.801Z,31.13
2022-08-17T14:50:41.095Z,31.07
2022-08-17T14:53:10.872Z,31.26
2022-08-17T14:55:40.103Z,31.43
2022-08-17T14:58:08.543Z,31.73
2022-08-17T15:00:36.793Z,31.51
2022-08-17T15:03:06.038Z,31.54
2022-08-17T15:05:37.813Z,31.10
2022-08-17T15:08:06.048Z,30.93
2022-08-17T15:10:33.825Z,31.28
2022-08-17T15:13:00.911Z,31.34
2022-08-17T15:15:29.350Z,31.19
2022-08-17T15:17:57.119Z,30.97
2022-08-17T15:20:28.877Z,31.22
2022-08-17T15:22:59.128Z,31.82
2022-08-17T15:25:31.522Z,32.27
2022-08-17T15:27:59.764Z,31.78
2022-08-17T15:30:29.907Z,32.01
2022-08-17T15:32:58.888Z,32.00
2022-08-17T15:35:30.213Z,31.86
2022-08-17T15:38:09.839Z,31.82
2022-08-17T15:40:47.954Z,31.84
2022-08-17T15:43:27.666Z,31.81
2022-08-17T15:46:18.229Z,31.98
2022-08-17T15:48:48.807Z,32.27
2022-08-17T15:51:26.112Z,32.39
2022-08-17T15:53:58.802Z,33.26
2022-08-17T15:56:27.386Z,33.42
2022-08-17T15:58:55.152Z,32.95
2022-08-17T16:02:15.426Z,32.93
2022-08-17T16:04:26.518Z,33.45
2022-08-17T16:06:59.553Z,33.49
2022-08-17T16:09:27.597Z,33.49
2022-08-17T16:11:55.674Z,33.07
2022-08-17T16:14:25.684Z,33.80
2022-08-17T16:17:00.761Z,34.00
2022-08-17T16:19:28.246Z,34.53
2022-08-17T16:21:56.585Z,34.54
2022-08-17T16:24:23.625Z,34.99
2022-08-17T16:26:51.657Z,35.07
2022-08-17T16:29:19.255Z,35.15
2022-08-17T16:31:48.160Z,35.22
2022-08-17T16:34:18.691Z,35.45
2022-08-17T16:36:54.885Z,35.58
2022-08-17T16:39:31.133Z,36.09
2022-08-17T16:41:58.246Z,36.23
2022-08-17T16:44:30.604Z,36.28
2022-08-17T16:47:00.673Z,36.39
2022-08-17T16:49:37.427Z,36.04
2022-08-17T16:52:10.820Z,36.00
2022-08-17T16:54:42.872Z,36.04
2022-08-17T16:57:15.306Z,36.21
2022-08-17T16:59:49.778Z,36.35
2022-08-17T17:02:30.363Z,36.71
2022-08-17T17:05:30.359Z,37.70
2022-08-17T17:08:03.179Z,39.63
2022-08-17T17:10:43.026Z,39.16
2022-08-17T17:13:18.875Z,38.46
2022-08-17T17:15:58.194Z,38.77
2022-08-17T17:18:41.029Z,38.85
2022-08-17T17:21:14.103Z,39.09
2022-08-17T17:23:55.962Z,39.46
2022-08-17T17:26:52.666Z,40.10
2022-08-17T17:29:48.592Z,40.10
2022-08-17T17:32:38.304Z,39.95
2022-08-17T17:35:16.626Z,40.04
2022-08-17T17:37:47.182Z,40.33
2022-08-17T17:40:22.922Z,40.36
2022-08-17T17:42:54.877Z,40.36
2022-08-17T17:45:33.859Z,40.32
2022-08-17T17:48:02.348Z,40.42
2022-08-17T17:50:36.747Z,41.31
2022-08-17T17:53:26.109Z,42.62
2022-08-17T17:56:34.281Z,44.09
2022-08-17T17:59:44.087Z,44.80
2022-08-17T18:02:52.822Z,45.64
2022-08-17T18:05:47.869Z,46.76
2022-08-17T18:08:58.653Z,47.70
2022-08-17T18:11:50.748Z,48.24
2022-08-17T18:14:38.484Z,49.40
2022-08-17T18:17:06.130Z,50.58
2022-08-17T18:19:33.380Z,51.80
2022-08-17T18:22:14.512Z,52.32
2022-08-17T18:24:45.810Z,52.05
2022-08-17T18:27:25.252Z,52.66
2022-08-17T18:29:55.394Z,52.75
2022-08-17T18:32:28.260Z,53.70
2022-08-17T18:35:05.333Z,53.88
2022-08-17T18:37:51.054Z,53.97
2022-08-17T18:40:21.085Z,53.51
2022-08-17T18:43:03.379Z,54.29
2022-08-17T18:45:38.400Z,54.64
2022-08-17T18:48:26.536Z,54.32
2022-08-17T18:51:01.712Z,54.35
2022-08-17T18:53:41.819Z,55.21
2022-08-17T18:56:24.234Z,56.37
2022-08-17T18:59:24.766Z,57.00
2022-08-17T19:02:11.800Z,56.86
2022-08-17T19:05:35.616Z,57.17
2022-08-17T19:08:32.914Z,57.19
2022-08-17T19:11:16.107Z,57.46
2022-08-17T19:14:03.709Z,57.83
2022-08-17T19:16:53.022Z,57.97
2022-08-17T19:19:36.824Z,58.00
2022-08-17T19:22:28.929Z,57.93
2022-08-17T19:25:16.147Z,57.96
2022-08-17T19:27:57.533Z,58.31
2022-08-17T19:30:27.992Z,58.34
2022-08-17T19:32:57.857Z,58.91
2022-08-17T19:35:44.160Z,58.92
2022-08-17T19:38:38.258Z,58.77
2022-08-17T19:41:29.967Z,59.53
2022-08-17T19:44:19.272Z,59.94
2022-08-17T19:47:30.443Z,60.12
2022-08-17T19:50:23.180Z,60.41
2022-08-17T19:53:14.544Z,60.36
2022-08-17T19:56:16.794Z,60.94
2022-08-17T19:59:19.163Z,63.17
2022-08-17T20:02:39.571Z,64.35
2022-08-17T20:05:25.759Z,62.70
2022-08-17T20:08:06.044Z,62.14
2022-08-17T20:10:55.362Z,62.33
2022-08-17T20:13:38.212Z,59.67
2022-08-17T20:16:11.838Z,57.96
2022-08-17T20:18:53.623Z,58.32
2022-08-17T20:21:26.513Z,58.80
2022-08-17T20:24:15.215Z,59.47
2022-08-17T20:27:27.984Z,59.80
2022-08-17T20:30:35.514Z,60.01
2022-08-17T20:33:23.839Z,60.78
2022-08-17T20:36:23.725Z,64.07
2022-08-17T20:38:53.444Z,66.21
2022-08-17T20:41:24.351Z,64.25
2022-08-17T20:43:56.718Z,62.28
2022-08-17T20:46:38.624Z,61.90
2022-08-17T20:49:16.063Z,58.66
2022-08-17T20:52:01.201Z,57.35
2022-08-17T20:54:52.328Z,57.23
2022-08-17T20:58:29.997Z,58.07
2022-08-17T21:01:01.342Z,58.95
2022-08-17T21:03:39.942Z,60.02
2022-08-17T21:06:21.205Z,60.26
2022-08-17T21:09:29.430Z,62.86
2022-08-17T21:12:05.311Z,65.49
2022-08-17T21:15:21.758Z,62.38
2022-08-17T21:18:06.630Z,62.16
2022-08-17T21:21:17.789Z,60.93
2022-08-17T21:24:08.088Z,57.25
2022-08-17T21:27:08.450Z,56.32
2022-08-17T21:29:52.730Z,56.95
2022-08-17T21:32:29.825Z,58.12
2022-08-17T21:35:06.833Z,58.78
2022-08-17T21:37:42.069Z,59.48
2022-08-17T21:40:18.582Z,60.31
2022-08-17T21:42:55.637Z,63.96
2022-08-17T21:45:34.462Z,65.29
2022-08-17T21:48:16.666Z,62.24
2022-08-17T21:50:57.210Z,59.05
2022-08-17T21:53:39.107Z,58.41
2022-08-17T21:56:11.769Z,59.16
2022-08-17T21:58:48.266Z,60.04
2022-08-17T22:01:23.692Z,63.91
2022-08-17T22:03:59.348Z,64.87
2022-08-17T22:06:42.779Z,62.28
2022-08-17T22:09:33.385Z,59.12
2022-08-17T22:12:11.081Z,58.47
2022-08-17T22:14:55.977Z,59.28
2022-08-17T22:17:35.708Z,60.02
2022-08-17T22:20:15.869Z,60.63
2022-08-17T22:23:05.152Z,64.10
2022-08-17T22:25:38.200Z,64.56
2022-08-17T22:28:09.173Z,61.20
2022-08-17T22:30:37.786Z,58.33
2022-08-17T22:33:32.939Z,57.76
2022-08-17T22:36:29.535Z,58.46
2022-08-17T22:39:19.058Z,60.06
2022-08-17T22:41:46.606Z,64.01
2022-08-17T22:44:33.658Z,64.99
2022-08-17T22:47:16.447Z,62.03
2022-08-17T22:49:52.992Z,59.09
2022-08-17T22:53:00.308Z,58.14
2022-08-17T22:55:49.821Z,58.58
2022-08-17T22:58:41.719Z,59.48
2022-08-17T23:01:25.940Z,60.05
2022-08-17T23:03:57.105Z,64.49
2022-08-17T23:06:24.148Z,64.23
2022-08-17T23:08:55.779Z,61.79
2022-08-17T23:11:42.872Z,58.36
2022-08-17T23:14:19.294Z,56.06
2022-08-17T23:16:48.135Z,57.24
2022-08-17T23:19:18.374Z,58.17
2022-08-17T23:21:45.959Z,59.26
2022-08-17T23:24:23.163Z,60.39
2022-08-17T23:26:50.480Z,63.64
2022-08-17T23:29:21.881Z,64.18
2022-08-17T23:31:50.746Z,62.50
2022-08-17T23:34:18.631Z,59.11
2022-08-17T23:36:50.124Z,58.42
2022-08-17T23:39:27.695Z,59.41
2022-08-17T23:42:00.030Z,59.99
2022-08-17T23:44:28.410Z,60.93
2022-08-17T23:46:55.465Z,63.53
2022-08-17T23:49:24.617Z,65.80
2022-08-17T23:51:54.815Z,64.58
2022-08-17T23:54:36.944Z,64.38
2022-08-17T23:57:04.410Z,64.25
2022-08-17T23:59:33.422Z,62.12
